SAS141 ENBR-EPGD
Flight info
| Callsign | SAS141 |
|---|---|
| Flight time | N/A |
| Altitude | 37000 |
| Route | TUXIL DCT ZOL DCT PEVEB DCT AMSEV DCT RUMAR L983 DOMAG T240 OGDAV |
| Aircraft | A320/M-SDE3FGHIRWY/LB1 |
Departure
| Time | 2026-04-28 06:57 |
|---|---|
| Airport | Bergen Airport, Flesland (ENBR) |
Arrival
| Time | N/A |
|---|---|
| Airport | Gdańsk Lech Wałęsa Airport (EPGD) |
| Time | Latitude | Longitude | Altitude | Speed | Heading |
|---|---|---|---|---|---|
| 2026-04-28 06:34 | 60.28831 | 5.22615 | 175 ft | 0 kts | 34° |
| 2026-04-28 06:39 | 60.28830 | 5.22614 | 175 ft | 0 kts | 34° |
| 2026-04-28 06:47 | 60.28828 | 5.22611 | 175 ft | 2 kts | 34° |
| 2026-04-28 06:47 | 60.28806 | 5.22581 | 175 ft | 4 kts | 34° |
| 2026-04-28 06:48 | 60.28785 | 5.22550 | 175 ft | 3 kts | 34° |
| 2026-04-28 06:48 | 60.28782 | 5.22547 | 175 ft | 0 kts | 34° |
| 2026-04-28 06:51 | 60.28772 | 5.22532 | 175 ft | 2 kts | 34° |
| 2026-04-28 06:52 | 60.28758 | 5.22513 | 175 ft | 2 kts | 34° |
| 2026-04-28 06:52 | 60.28744 | 5.22494 | 174 ft | 2 kts | 34° |
| 2026-04-28 06:52 | 60.28729 | 5.22474 | 173 ft | 3 kts | 34° |
| 2026-04-28 06:52 | 60.28726 | 5.22470 | 173 ft | 0 kts | 34° |
| 2026-04-28 06:53 | 60.28727 | 5.22470 | 173 ft | 1 kts | 26° |
| 2026-04-28 06:53 | 60.28763 | 5.22451 | 174 ft | 11 kts | 346° |
| 2026-04-28 06:53 | 60.28788 | 5.22349 | 171 ft | 13 kts | 214° |
| 2026-04-28 06:54 | 60.28679 | 5.22354 | 168 ft | 18 kts | 174° |
| 2026-04-28 06:54 | 60.28539 | 5.22400 | 165 ft | 22 kts | 169° |
| 2026-04-28 06:54 | 60.28371 | 5.22462 | 162 ft | 27 kts | 170° |
| 2026-04-28 06:54 | 60.28195 | 5.22523 | 155 ft | 24 kts | 171° |
| 2026-04-28 06:55 | 60.28057 | 5.22496 | 152 ft | 14 kts | 238° |
| 2026-04-28 06:55 | 60.28053 | 5.22343 | 153 ft | 11 kts | 267° |
| 2026-04-28 06:55 | 60.28101 | 5.22229 | 153 ft | 13 kts | 345° |
| 2026-04-28 06:55 | 60.28117 | 5.22222 | 153 ft | 0 kts | 347° |
| 2026-04-28 06:56 | 60.28127 | 5.22217 | 153 ft | 15 kts | 347° |
| 2026-04-28 06:56 | 60.28479 | 5.22093 | 158 ft | 84 kts | 351° |
| 2026-04-28 06:56 | 60.29248 | 5.21844 | 158 ft | 138 kts | 351° |
| 2026-04-28 06:56 | 60.30312 | 5.21548 | 405 ft | 154 kts | 354° |
| 2026-04-28 06:57 | 60.31309 | 5.21395 | 1262 ft | 135 kts | 356° |
| 2026-04-28 06:57 | 60.32257 | 5.21243 | 1513 ft | 149 kts | 354° |
| 2026-04-28 06:57 | 60.33379 | 5.20972 | 1542 ft | 180 kts | 351° |
| 2026-04-28 06:57 | 60.34707 | 5.20462 | 1765 ft | 206 kts | 348° |
| 2026-04-28 06:58 | 60.36193 | 5.19832 | 2128 ft | 230 kts | 348° |
| 2026-04-28 06:58 | 60.37835 | 5.19156 | 2673 ft | 248 kts | 348° |
| 2026-04-28 06:58 | 60.38718 | 5.18808 | 3086 ft | 251 kts | 348° |
| 2026-04-28 06:58 | 60.39239 | 5.18607 | 3396 ft | 250 kts | 349° |
| 2026-04-28 06:59 | 60.39437 | 5.18532 | 3508 ft | 250 kts | 349° |
| 2026-04-28 06:59 | 60.39902 | 5.18346 | 3837 ft | 237 kts | 344° |
| 2026-04-28 06:59 | 60.41113 | 5.17719 | 4852 ft | 228 kts | 345° |
| 2026-04-28 06:59 | 60.42748 | 5.17031 | 5242 ft | 252 kts | 349° |
| 2026-04-28 07:00 | 60.44512 | 5.16462 | 5958 ft | 259 kts | 351° |
| 2026-04-28 07:00 | 60.46267 | 5.15802 | 6842 ft | 261 kts | 340° |
| 2026-04-28 07:00 | 60.47793 | 5.13855 | 7638 ft | 264 kts | 312° |
| 2026-04-28 07:00 | 60.48653 | 5.10572 | 8428 ft | 270 kts | 283° |
| 2026-04-28 07:01 | 60.48630 | 5.06739 | 9205 ft | 277 kts | 263° |
| 2026-04-28 07:01 | 60.48146 | 5.02934 | 9996 ft | 284 kts | 247° |
| 2026-04-28 07:01 | 60.46926 | 4.99731 | 10702 ft | 295 kts | 221° |
| 2026-04-28 07:01 | 60.45048 | 4.97798 | 11068 ft | 318 kts | 194° |
| 2026-04-28 07:02 | 60.44302 | 4.97571 | 11131 ft | 327 kts | 184° |
| 2026-04-28 07:02 | 60.42769 | 4.97622 | 10775 ft | 354 kts | 177° |
| 2026-04-28 07:02 | 60.40186 | 4.98044 | 10951 ft | 370 kts | 175° |
| 2026-04-28 07:03 | 60.37646 | 4.98595 | 11929 ft | 367 kts | 174° |
| 2026-04-28 07:03 | 60.35103 | 4.99229 | 12613 ft | 369 kts | 174° |
| 2026-04-28 07:03 | 60.34357 | 4.99419 | 12800 ft | 370 kts | 174° |
| 2026-04-28 07:03 | 60.33607 | 4.99630 | 12916 ft | 372 kts | 170° |
| 2026-04-28 07:04 | 60.31030 | 5.00535 | 13447 ft | 377 kts | 172° |
| 2026-04-28 07:04 | 60.28421 | 5.01195 | 14132 ft | 379 kts | 175° |
| 2026-04-28 07:04 | 60.25789 | 5.01967 | 14693 ft | 384 kts | 171° |
| 2026-04-28 07:04 | 60.23138 | 5.02858 | 15214 ft | 389 kts | 171° |
| 2026-04-28 07:05 | 60.20455 | 5.03821 | 15724 ft | 394 kts | 170° |
| 2026-04-28 07:05 | 60.17748 | 5.04853 | 16228 ft | 398 kts | 168° |
| 2026-04-28 07:05 | 60.15071 | 5.06405 | 16720 ft | 403 kts | 158° |
| 2026-04-28 07:05 | 60.12485 | 5.08633 | 17232 ft | 407 kts | 155° |
| 2026-04-28 07:06 | 60.09873 | 5.10911 | 17737 ft | 411 kts | 155° |
| 2026-04-28 07:06 | 60.08411 | 5.12182 | 18036 ft | 414 kts | 155° |
| 2026-04-28 07:06 | 60.05753 | 5.14485 | 18589 ft | 417 kts | 155° |
| 2026-04-28 07:06 | 60.03078 | 5.16785 | 19110 ft | 421 kts | 155° |
| 2026-04-28 07:08 | 60.01145 | 5.18346 | 19449 ft | 424 kts | 157° |
| 2026-04-28 07:08 | 59.98397 | 5.20550 | 19945 ft | 427 kts | 155° |
| 2026-04-28 07:08 | 59.95650 | 5.22882 | 20451 ft | 430 kts | 154° |
| 2026-04-28 07:08 | 59.92895 | 5.25289 | 20961 ft | 434 kts | 154° |
| 2026-04-28 07:09 | 59.90121 | 5.27726 | 21465 ft | 437 kts | 154° |
| 2026-04-28 07:09 | 59.87323 | 5.30165 | 21967 ft | 441 kts | 154° |
| 2026-04-28 07:09 | 59.84495 | 5.32592 | 22425 ft | 444 kts | 154° |
| 2026-04-28 07:09 | 59.81616 | 5.34897 | 22863 ft | 449 kts | 159° |
| 2026-04-28 07:10 | 59.78568 | 5.36410 | 23295 ft | 455 kts | 169° |
| 2026-04-28 07:10 | 59.75408 | 5.37064 | 23740 ft | 458 kts | 174° |
| 2026-04-28 07:10 | 59.72218 | 5.37562 | 24151 ft | 461 kts | 174° |
| 2026-04-28 07:10 | 59.69008 | 5.38083 | 24510 ft | 465 kts | 174° |
| 2026-04-28 07:11 | 59.65771 | 5.38623 | 24847 ft | 468 kts | 174° |
| 2026-04-28 07:11 | 59.62524 | 5.39222 | 25189 ft | 470 kts | 172° |
| 2026-04-28 07:11 | 59.59306 | 5.39967 | 25524 ft | 473 kts | 171° |
| 2026-04-28 07:11 | 59.56030 | 5.40835 | 25847 ft | 476 kts | 170° |
| 2026-04-28 07:12 | 59.52739 | 5.41754 | 26168 ft | 478 kts | 170° |
| 2026-04-28 07:12 | 59.49434 | 5.42673 | 26488 ft | 481 kts | 170° |
| 2026-04-28 07:12 | 59.46107 | 5.43567 | 26827 ft | 484 kts | 170° |
| 2026-04-28 07:12 | 59.42764 | 5.44429 | 27153 ft | 486 kts | 170° |
| 2026-04-28 07:13 | 59.39397 | 5.45293 | 27471 ft | 489 kts | 169° |
| 2026-04-28 07:13 | 59.36031 | 5.46311 | 27785 ft | 491 kts | 168° |
| 2026-04-28 07:13 | 59.32660 | 5.47502 | 28091 ft | 493 kts | 166° |
| 2026-04-28 07:13 | 59.29287 | 5.48802 | 28400 ft | 496 kts | 166° |
| 2026-04-28 07:14 | 59.25896 | 5.50145 | 28708 ft | 498 kts | 166° |
| 2026-04-28 07:14 | 59.22487 | 5.51480 | 29002 ft | 501 kts | 166° |
| 2026-04-28 07:14 | 59.19063 | 5.52777 | 29374 ft | 502 kts | 166° |
| 2026-04-28 07:14 | 59.15634 | 5.54030 | 29830 ft | 501 kts | 166° |
| 2026-04-28 07:15 | 59.12210 | 5.55249 | 30256 ft | 501 kts | 166° |
| 2026-04-28 07:15 | 59.08777 | 5.56456 | 30647 ft | 501 kts | 166° |
| 2026-04-28 07:15 | 59.05348 | 5.57659 | 30999 ft | 501 kts | 166° |
| 2026-04-28 07:15 | 59.01919 | 5.58870 | 31356 ft | 501 kts | 166° |
| 2026-04-28 07:16 | 58.98490 | 5.60094 | 31718 ft | 501 kts | 166° |
| 2026-04-28 07:16 | 58.95093 | 5.61529 | 32079 ft | 497 kts | 159° |
| 2026-04-28 07:16 | 58.91872 | 5.63833 | 32448 ft | 490 kts | 148° |
| 2026-04-28 07:16 | 58.88932 | 5.67020 | 32835 ft | 480 kts | 138° |
| 2026-04-28 07:17 | 58.86335 | 5.70952 | 33240 ft | 469 kts | 128° |
| 2026-04-28 07:17 | 58.84124 | 5.75461 | 33636 ft | 457 kts | 119° |
| 2026-04-28 07:17 | 58.82314 | 5.80400 | 34033 ft | 446 kts | 111° |
| 2026-04-28 07:17 | 58.81252 | 5.83790 | 34290 ft | 445 kts | 111° |
| 2026-04-28 07:18 | 58.79643 | 5.88873 | 34656 ft | 444 kts | 111° |
| 2026-04-28 07:18 | 58.78024 | 5.93932 | 34967 ft | 444 kts | 112° |
| 2026-04-28 07:18 | 58.75866 | 6.00625 | 35358 ft | 444 kts | 112° |
| 2026-04-28 07:18 | 58.74763 | 6.04042 | 35546 ft | 444 kts | 112° |
| 2026-04-28 07:19 | 58.73136 | 6.09083 | 35795 ft | 444 kts | 112° |
| 2026-04-28 07:19 | 58.71511 | 6.14128 | 36052 ft | 443 kts | 112° |
| 2026-04-28 07:19 | 58.69883 | 6.19172 | 36266 ft | 444 kts | 112° |
| 2026-04-28 07:19 | 58.68256 | 6.24208 | 36495 ft | 444 kts | 112° |
| 2026-04-28 07:20 | 58.66627 | 6.29244 | 36784 ft | 444 kts | 112° |
| 2026-04-28 07:20 | 58.64993 | 6.34276 | 36975 ft | 445 kts | 113° |
| 2026-04-28 07:20 | 58.63353 | 6.39313 | 37217 ft | 445 kts | 113° |
| 2026-04-28 07:20 | 58.61708 | 6.44343 | 37445 ft | 445 kts | 113° |
| 2026-04-28 07:21 | 58.60059 | 6.49370 | 37662 ft | 445 kts | 113° |
| 2026-04-28 07:21 | 58.58409 | 6.54394 | 37874 ft | 446 kts | 114° |
| 2026-04-28 07:21 | 58.56756 | 6.59421 | 38092 ft | 445 kts | 114° |
| 2026-04-28 07:22 | 58.53449 | 6.69452 | 38464 ft | 446 kts | 114° |
| 2026-04-28 07:22 | 58.51788 | 6.74476 | 38493 ft | 447 kts | 114° |
| 2026-04-28 07:22 | 58.48408 | 6.84381 | 38490 ft | 450 kts | 117° |
| 2026-04-28 07:23 | 58.44621 | 6.94085 | 38491 ft | 454 kts | 120° |
| 2026-04-28 07:23 | 58.40701 | 7.03569 | 38495 ft | 456 kts | 121° |
| 2026-04-28 07:24 | 58.36837 | 7.13032 | 38496 ft | 455 kts | 120° |
| 2026-04-28 07:24 | 58.32983 | 7.22680 | 38503 ft | 455 kts | 120° |
| 2026-04-28 07:25 | 58.29148 | 7.32260 | 38503 ft | 455 kts | 120° |
| 2026-04-28 07:25 | 58.25318 | 7.41743 | 38505 ft | 455 kts | 120° |
| 2026-04-28 07:26 | 58.21447 | 7.51276 | 38538 ft | 456 kts | 120° |
| 2026-04-28 07:26 | 58.17562 | 7.60797 | 38528 ft | 457 kts | 120° |
| 2026-04-28 07:27 | 58.13666 | 7.70309 | 38527 ft | 457 kts | 121° |
| 2026-04-28 07:27 | 58.09762 | 7.79805 | 38524 ft | 458 kts | 121° |
| 2026-04-28 07:28 | 58.05840 | 7.89287 | 38515 ft | 458 kts | 121° |
| 2026-04-28 07:28 | 58.01918 | 7.98763 | 38572 ft | 458 kts | 121° |
| 2026-04-28 07:29 | 57.97984 | 8.08225 | 38507 ft | 458 kts | 121° |
| 2026-04-28 07:29 | 57.94035 | 8.17664 | 38502 ft | 459 kts | 121° |
| 2026-04-28 07:30 | 57.90088 | 8.27101 | 38503 ft | 459 kts | 121° |
| 2026-04-28 07:30 | 57.86129 | 8.36521 | 38505 ft | 459 kts | 121° |
| 2026-04-28 07:31 | 57.82160 | 8.45908 | 38509 ft | 459 kts | 122° |
| 2026-04-28 07:31 | 57.78175 | 8.55282 | 38510 ft | 460 kts | 122° |
| 2026-04-28 07:32 | 57.74183 | 8.64648 | 38495 ft | 460 kts | 122° |
| 2026-04-28 07:32 | 57.70184 | 8.73990 | 38494 ft | 460 kts | 122° |
| 2026-04-28 07:33 | 57.66450 | 8.83611 | 38492 ft | 452 kts | 112° |
| 2026-04-28 07:33 | 57.63293 | 8.93784 | 38497 ft | 453 kts | 113° |
| 2026-04-28 07:34 | 57.60111 | 9.03927 | 38478 ft | 453 kts | 113° |
| 2026-04-28 07:34 | 57.56919 | 9.14063 | 38514 ft | 454 kts | 114° |
| 2026-04-28 07:35 | 57.53712 | 9.24205 | 38498 ft | 455 kts | 114° |
| 2026-04-28 07:35 | 57.50485 | 9.34334 | 38495 ft | 455 kts | 114° |
| 2026-04-28 07:36 | 57.47252 | 9.44451 | 38493 ft | 456 kts | 114° |
| 2026-04-28 07:36 | 57.44011 | 9.54572 | 38489 ft | 456 kts | 114° |
| 2026-04-28 07:37 | 57.40768 | 9.64679 | 38514 ft | 457 kts | 114° |
| 2026-04-28 07:37 | 57.37499 | 9.74795 | 38492 ft | 458 kts | 115° |
| 2026-04-28 07:38 | 57.34234 | 9.84833 | 38480 ft | 458 kts | 115° |
| 2026-04-28 07:38 | 57.30937 | 9.94940 | 38480 ft | 459 kts | 115° |
| 2026-04-28 07:39 | 57.27631 | 10.05053 | 38477 ft | 459 kts | 115° |
| 2026-04-28 07:39 | 57.24316 | 10.15150 | 38523 ft | 460 kts | 116° |
| 2026-04-28 07:40 | 57.20984 | 10.25245 | 38484 ft | 461 kts | 115° |
| 2026-04-28 07:40 | 57.17635 | 10.35325 | 38487 ft | 461 kts | 116° |
| 2026-04-28 07:41 | 57.14278 | 10.45398 | 38481 ft | 461 kts | 116° |
| 2026-04-28 07:41 | 57.10915 | 10.55461 | 38481 ft | 462 kts | 116° |
| 2026-04-28 07:42 | 57.07542 | 10.65510 | 38479 ft | 462 kts | 116° |
| 2026-04-28 07:42 | 57.04153 | 10.75546 | 38477 ft | 462 kts | 116° |
| 2026-04-28 07:43 | 57.00761 | 10.85577 | 38468 ft | 463 kts | 116° |
| 2026-04-28 07:43 | 56.97358 | 10.95603 | 38466 ft | 463 kts | 116° |
| 2026-04-28 07:44 | 56.93937 | 11.05611 | 38471 ft | 464 kts | 116° |
| 2026-04-28 07:44 | 56.90511 | 11.15616 | 38469 ft | 464 kts | 117° |
| 2026-04-28 07:45 | 56.87067 | 11.25603 | 38456 ft | 464 kts | 117° |
| 2026-04-28 07:45 | 56.83623 | 11.35570 | 38467 ft | 464 kts | 117° |
| 2026-04-28 07:46 | 56.80167 | 11.45534 | 38470 ft | 464 kts | 117° |
| 2026-04-28 07:46 | 56.76706 | 11.55464 | 38470 ft | 464 kts | 117° |